TAF Text Data
IDs:
Format:
Raw Decoded Include METAR

Data at: 0844 UTC 21 Oct 2018

KECG 210520Z 2106/2206 28012KT P6SM SCT100
  FM210800 30015G25KT P6SM BKN150
  FM211100 32020G30KT P6SM SKC
  FM220000 33010KT P6SM SKC